sensor_id;sensor_type;location;lat;lon;timestamp;temperature;humidity
13713;DHT22;6928;50.546;7.120;2023-03-26T00:00:47;9.89;73.00
13713;DHT22;6928;50.546;7.120;2023-03-26T00:03:16;9.95;73.06
13713;DHT22;6928;50.546;7.120;2023-03-26T00:05:45;9.92;73.30
13713;DHT22;6928;50.546;7.120;2023-03-26T00:08:15;9.94;73.46
13713;DHT22;6928;50.546;7.120;2023-03-26T00:10:43;9.88;73.89
13713;DHT22;6928;50.546;7.120;2023-03-26T00:13:10;9.89;74.69
13713;DHT22;6928;50.546;7.120;2023-03-26T00:15:37;9.85;75.64
13713;DHT22;6928;50.546;7.120;2023-03-26T00:18:05;9.79;76.01
13713;DHT22;6928;50.546;7.120;2023-03-26T00:20:34;9.75;76.33
13713;DHT22;6928;50.546;7.120;2023-03-26T00:23:03;9.77;76.31
13713;DHT22;6928;50.546;7.120;2023-03-26T00:25:31;9.79;76.13
13713;DHT22;6928;50.546;7.120;2023-03-26T00:28:06;9.71;76.25
13713;DHT22;6928;50.546;7.120;2023-03-26T00:30:34;9.71;76.07
13713;DHT22;6928;50.546;7.120;2023-03-26T00:33:01;9.74;76.17
13713;DHT22;6928;50.546;7.120;2023-03-26T00:35:29;9.71;76.01
13713;DHT22;6928;50.546;7.120;2023-03-26T00:37:56;9.67;76.24
13713;DHT22;6928;50.546;7.120;2023-03-26T00:40:24;9.64;76.39
13713;DHT22;6928;50.546;7.120;2023-03-26T00:42:55;9.71;76.03
13713;DHT22;6928;50.546;7.120;2023-03-26T00:45:22;9.70;76.12
13713;DHT22;6928;50.546;7.120;2023-03-26T00:47:49;9.61;76.19
13713;DHT22;6928;50.546;7.120;2023-03-26T00:50:16;9.67;75.81
13713;DHT22;6928;50.546;7.120;2023-03-26T00:52:43;9.60;75.85
13713;DHT22;6928;50.546;7.120;2023-03-26T00:55:11;9.65;75.83
13713;DHT22;6928;50.546;7.120;2023-03-26T00:57:38;9.62;75.78
13713;DHT22;6928;50.546;7.120;2023-03-26T01:00:12;9.64;75.50
13713;DHT22;6928;50.546;7.120;2023-03-26T01:02:40;9.58;75.66
13713;DHT22;6928;50.546;7.120;2023-03-26T01:05:40;9.54;75.97
13713;DHT22;6928;50.546;7.120;2023-03-26T01:08:24;9.62;75.43
13713;DHT22;6928;50.546;7.120;2023-03-26T01:10:54;9.58;75.77
13713;DHT22;6928;50.546;7.120;2023-03-26T01:13:29;9.62;75.48
13713;DHT22;6928;50.546;7.120;2023-03-26T01:15:59;9.50;75.65
13713;DHT22;6928;50.546;7.120;2023-03-26T01:18:29;9.52;75.65
13713;DHT22;6928;50.546;7.120;2023-03-26T01:20:59;9.47;75.76
13713;DHT22;6928;50.546;7.120;2023-03-26T01:23:43;9.47;75.76
13713;DHT22;6928;50.546;7.120;2023-03-26T01:26:28;9.47;75.63
13713;DHT22;6928;50.546;7.120;2023-03-26T01:28:58;9.54;75.61
13713;DHT22;6928;50.546;7.120;2023-03-26T01:31:33;9.50;75.75
13713;DHT22;6928;50.546;7.120;2023-03-26T01:34:08;9.33;76.09
13713;DHT22;6928;50.546;7.120;2023-03-26T01:36:43;9.37;76.14
13713;DHT22;6928;50.546;7.120;2023-03-26T01:39:18;9.30;76.26
13713;DHT22;6928;50.546;7.120;2023-03-26T01:41:54;9.37;75.81
13713;DHT22;6928;50.546;7.120;2023-03-26T01:44:29;9.37;75.99
13713;DHT22;6928;50.546;7.120;2023-03-26T01:46:58;9.37;75.91
13713;DHT22;6928;50.546;7.120;2023-03-26T01:49:26;9.33;76.06
13713;DHT22;6928;50.546;7.120;2023-03-26T01:51:54;9.30;75.98
13713;DHT22;6928;50.546;7.120;2023-03-26T01:54:26;9.33;76.04
13713;DHT22;6928;50.546;7.120;2023-03-26T01:57:04;9.36;75.96
13713;DHT22;6928;50.546;7.120;2023-03-26T01:59:58;9.30;76.19
13713;DHT22;6928;50.546;7.120;2023-03-26T02:02:33;9.29;76.23
13713;DHT22;6928;50.546;7.120;2023-03-26T02:05:09;9.36;76.02
13713;DHT22;6928;50.546;7.120;2023-03-26T02:07:42;9.39;75.90
13713;DHT22;6928;50.546;7.120;2023-03-26T02:10:13;9.34;76.11
13713;DHT22;6928;50.546;7.120;2023-03-26T02:12:43;9.27;76.35
13713;DHT22;6928;50.546;7.120;2023-03-26T02:15:11;9.33;76.42
13713;DHT22;6928;50.546;7.120;2023-03-26T02:17:38;9.34;76.38
13713;DHT22;6928;50.546;7.120;2023-03-26T02:20:07;9.40;75.94
13713;DHT22;6928;50.546;7.120;2023-03-26T02:22:35;9.40;76.15
13713;DHT22;6928;50.546;7.120;2023-03-26T02:25:07;9.46;76.03
13713;DHT22;6928;50.546;7.120;2023-03-26T02:27:34;9.46;76.24
13713;DHT22;6928;50.546;7.120;2023-03-26T02:30:03;9.44;76.15
13713;DHT22;6928;50.546;7.120;2023-03-26T02:32:30;9.41;76.36
13713;DHT22;6928;50.546;7.120;2023-03-26T02:34:57;9.47;76.44
13713;DHT22;6928;50.546;7.120;2023-03-26T02:37:24;9.47;76.53
13713;DHT22;6928;50.546;7.120;2023-03-26T02:39:50;9.46;76.33
13713;DHT22;6928;50.546;7.120;2023-03-26T02:42:17;9.47;76.34
13713;DHT22;6928;50.546;7.120;2023-03-26T02:44:44;9.37;76.72
13713;DHT22;6928;50.546;7.120;2023-03-26T02:47:12;9.47;76.60
13713;DHT22;6928;50.546;7.120;2023-03-26T02:49:39;9.36;77.23
13713;DHT22;6928;50.546;7.120;2023-03-26T02:52:06;9.43;77.53
13713;DHT22;6928;50.546;7.120;2023-03-26T02:54:33;9.47;78.14
13713;DHT22;6928;50.546;7.120;2023-03-26T02:57:00;9.46;78.79
13713;DHT22;6928;50.546;7.120;2023-03-26T02:59:27;9.54;79.08
13713;DHT22;6928;50.546;7.120;2023-03-26T03:01:54;9.55;79.41
13713;DHT22;6928;50.546;7.120;2023-03-26T03:04:22;9.48;79.91
13713;DHT22;6928;50.546;7.120;2023-03-26T03:06:48;9.41;80.29
13713;DHT22;6928;50.546;7.120;2023-03-26T03:09:22;9.52;80.08
13713;DHT22;6928;50.546;7.120;2023-03-26T03:11:49;9.54;79.81
13713;DHT22;6928;50.546;7.120;2023-03-26T03:14:17;9.51;80.14
13713;DHT22;6928;50.546;7.120;2023-03-26T03:16:43;9.50;80.09
13713;DHT22;6928;50.546;7.120;2023-03-26T03:19:10;9.47;80.06
13713;DHT22;6928;50.546;7.120;2023-03-26T03:21:40;9.34;81.17
13713;DHT22;6928;50.546;7.120;2023-03-26T03:24:07;9.43;80.50
13713;DHT22;6928;50.546;7.120;2023-03-26T03:26:36;9.34;80.49
13713;DHT22;6928;50.546;7.120;2023-03-26T03:29:02;9.47;80.52
13713;DHT22;6928;50.546;7.120;2023-03-26T03:31:29;9.44;80.54
13713;DHT22;6928;50.546;7.120;2023-03-26T03:33:56;9.24;80.38
13713;DHT22;6928;50.546;7.120;2023-03-26T03:36:23;9.33;80.41
13713;DHT22;6928;50.546;7.120;2023-03-26T03:38:53;9.37;81.10
13713;DHT22;6928;50.546;7.120;2023-03-26T03:41:20;9.29;80.59
13713;DHT22;6928;50.546;7.120;2023-03-26T03:43:47;9.20;80.35
13713;DHT22;6928;50.546;7.120;2023-03-26T03:46:13;9.20;80.23
13713;DHT22;6928;50.546;7.120;2023-03-26T03:48:40;9.22;80.25
13713;DHT22;6928;50.546;7.120;2023-03-26T03:51:12;9.23;79.87
13713;DHT22;6928;50.546;7.120;2023-03-26T03:53:39;9.23;79.54
13713;DHT22;6928;50.546;7.120;2023-03-26T03:56:07;9.31;79.44
13713;DHT22;6928;50.546;7.120;2023-03-26T03:58:35;9.26;79.27
13713;DHT22;6928;50.546;7.120;2023-03-26T04:01:01;9.27;79.19
13713;DHT22;6928;50.546;7.120;2023-03-26T04:03:29;9.22;79.30
13713;DHT22;6928;50.546;7.120;2023-03-26T04:05:56;9.20;79.53
13713;DHT22;6928;50.546;7.120;2023-03-26T04:08:23;9.10;80.45
13713;DHT22;6928;50.546;7.120;2023-03-26T04:10:50;8.91;81.33
13713;DHT22;6928;50.546;7.120;2023-03-26T04:13:18;9.19;80.57
13713;DHT22;6928;50.546;7.120;2023-03-26T04:15:45;9.15;80.88
13713;DHT22;6928;50.546;7.120;2023-03-26T04:18:12;9.20;81.41
13713;DHT22;6928;50.546;7.120;2023-03-26T04:20:41;9.33;80.25
13713;DHT22;6928;50.546;7.120;2023-03-26T04:23:11;8.99;82.14
13713;DHT22;6928;50.546;7.120;2023-03-26T04:25:40;9.26;81.15
13713;DHT22;6928;50.546;7.120;2023-03-26T04:28:08;9.22;80.95
13713;DHT22;6928;50.546;7.120;2023-03-26T04:30:37;9.19;79.01
13713;DHT22;6928;50.546;7.120;2023-03-26T04:33:09;8.93;81.40
13713;DHT22;6928;50.546;7.120;2023-03-26T04:35:40;8.78;82.70
13713;DHT22;6928;50.546;7.120;2023-03-26T04:38:09;8.82;83.51
13713;DHT22;6928;50.546;7.120;2023-03-26T04:40:37;8.72;83.39
13713;DHT22;6928;50.546;7.120;2023-03-26T04:43:04;8.76;84.45
13713;DHT22;6928;50.546;7.120;2023-03-26T04:45:31;8.91;83.50
13713;DHT22;6928;50.546;7.120;2023-03-26T04:47:59;8.67;84.61
13713;DHT22;6928;50.546;7.120;2023-03-26T04:50:27;8.60;84.39
13713;DHT22;6928;50.546;7.120;2023-03-26T04:52:54;8.58;84.59
13713;DHT22;6928;50.546;7.120;2023-03-26T04:55:24;8.55;84.58
13713;DHT22;6928;50.546;7.120;2023-03-26T04:57:56;8.47;85.02
13713;DHT22;6928;50.546;7.120;2023-03-26T05:00:27;8.47;84.96
13713;DHT22;6928;50.546;7.120;2023-03-26T05:02:54;8.38;85.41
13713;DHT22;6928;50.546;7.120;2023-03-26T05:05:24;8.44;85.07
13713;DHT22;6928;50.546;7.120;2023-03-26T05:07:52;8.45;85.09
13713;DHT22;6928;50.546;7.120;2023-03-26T05:10:19;8.54;85.30
13713;DHT22;6928;50.546;7.120;2023-03-26T05:12:45;8.75;84.21
13713;DHT22;6928;50.546;7.120;2023-03-26T05:15:14;8.55;85.21
13713;DHT22;6928;50.546;7.120;2023-03-26T05:17:41;8.60;84.46
13713;DHT22;6928;50.546;7.120;2023-03-26T05:20:15;8.44;84.83
13713;DHT22;6928;50.546;7.120;2023-03-26T05:22:46;8.33;84.81
13713;DHT22;6928;50.546;7.120;2023-03-26T05:25:13;8.52;85.10
13713;DHT22;6928;50.546;7.120;2023-03-26T05:27:41;8.41;85.91
13713;DHT22;6928;50.546;7.120;2023-03-26T05:30:10;8.54;85.44
13713;DHT22;6928;50.546;7.120;2023-03-26T05:32:37;8.61;85.42
13713;DHT22;6928;50.546;7.120;2023-03-26T05:35:05;8.40;85.80
13713;DHT22;6928;50.546;7.120;2023-03-26T05:37:33;8.58;85.29
13713;DHT22;6928;50.546;7.120;2023-03-26T05:40:01;8.73;84.95
13713;DHT22;6928;50.546;7.120;2023-03-26T05:42:28;8.50;85.49
13713;DHT22;6928;50.546;7.120;2023-03-26T05:44:55;8.45;85.81
13713;DHT22;6928;50.546;7.120;2023-03-26T05:47:22;8.47;85.31
13713;DHT22;6928;50.546;7.120;2023-03-26T05:49:48;8.34;85.68
13713;DHT22;6928;50.546;7.120;2023-03-26T05:52:15;8.44;85.44
13713;DHT22;6928;50.546;7.120;2023-03-26T05:54:43;8.48;84.97
13713;DHT22;6928;50.546;7.120;2023-03-26T05:57:11;8.38;85.42
13713;DHT22;6928;50.546;7.120;2023-03-26T05:59:38;8.61;84.99
13713;DHT22;6928;50.546;7.120;2023-03-26T06:02:06;8.50;84.84
13713;DHT22;6928;50.546;7.120;2023-03-26T06:04:33;8.65;84.84
13713;DHT22;6928;50.546;7.120;2023-03-26T06:06:59;8.61;84.75
13713;DHT22;6928;50.546;7.120;2023-03-26T06:09:28;8.52;85.68
13713;DHT22;6928;50.546;7.120;2023-03-26T06:11:55;8.55;85.58
13713;DHT22;6928;50.546;7.120;2023-03-26T06:14:23;8.24;86.25
13713;DHT22;6928;50.546;7.120;2023-03-26T06:16:50;8.19;87.12
13713;DHT22;6928;50.546;7.120;2023-03-26T06:19:16;8.17;87.12
13713;DHT22;6928;50.546;7.120;2023-03-26T06:21:43;8.20;87.80
13713;DHT22;6928;50.546;7.120;2023-03-26T06:24:10;8.24;87.41
13713;DHT22;6928;50.546;7.120;2023-03-26T06:26:36;8.44;86.90
13713;DHT22;6928;50.546;7.120;2023-03-26T06:29:03;8.41;87.09
13713;DHT22;6928;50.546;7.120;2023-03-26T06:31:31;8.31;87.35
13713;DHT22;6928;50.546;7.120;2023-03-26T06:33:58;8.34;88.10
13713;DHT22;6928;50.546;7.120;2023-03-26T06:36:25;8.47;87.62
13713;DHT22;6928;50.546;7.120;2023-03-26T06:38:52;8.58;87.83
13713;DHT22;6928;50.546;7.120;2023-03-26T06:41:19;8.48;88.20
13713;DHT22;6928;50.546;7.120;2023-03-26T06:43:46;8.51;88.16
13713;DHT22;6928;50.546;7.120;2023-03-26T06:46:12;8.54;88.30
13713;DHT22;6928;50.546;7.120;2023-03-26T06:48:41;8.17;88.38
13713;DHT22;6928;50.546;7.120;2023-03-26T06:51:09;8.26;89.52
13713;DHT22;6928;50.546;7.120;2023-03-26T06:53:35;8.48;88.99
13713;DHT22;6928;50.546;7.120;2023-03-26T06:56:02;8.55;89.01
13713;DHT22;6928;50.546;7.120;2023-03-26T06:58:29;8.42;89.51
13713;DHT22;6928;50.546;7.120;2023-03-26T07:00:56;8.42;89.83
13713;DHT22;6928;50.546;7.120;2023-03-26T07:03:23;8.50;89.67
13713;DHT22;6928;50.546;7.120;2023-03-26T07:05:51;8.34;90.19
13713;DHT22;6928;50.546;7.120;2023-03-26T07:08:18;8.36;91.09
13713;DHT22;6928;50.546;7.120;2023-03-26T07:10:45;8.54;90.01
13713;DHT22;6928;50.546;7.120;2023-03-26T07:13:12;8.61;89.95
13713;DHT22;6928;50.546;7.120;2023-03-26T07:15:39;8.51;90.21
13713;DHT22;6928;50.546;7.120;2023-03-26T07:18:06;8.51;90.27
13713;DHT22;6928;50.546;7.120;2023-03-26T07:20:35;8.47;90.30
13713;DHT22;6928;50.546;7.120;2023-03-26T07:23:04;8.55;90.11
13713;DHT22;6928;50.546;7.120;2023-03-26T07:25:32;8.47;90.19
13713;DHT22;6928;50.546;7.120;2023-03-26T07:28:06;8.33;90.69
13713;DHT22;6928;50.546;7.120;2023-03-26T07:30:48;8.33;91.15
13713;DHT22;6928;50.546;7.120;2023-03-26T07:33:21;8.30;90.64
13713;DHT22;6928;50.546;7.120;2023-03-26T07:35:57;8.19;91.76
13713;DHT22;6928;50.546;7.120;2023-03-26T07:38:45;8.24;90.94
13713;DHT22;6928;50.546;7.120;2023-03-26T07:41:21;8.10;90.98
13713;DHT22;6928;50.546;7.120;2023-03-26T07:44:04;7.95;89.57
13713;DHT22;6928;50.546;7.120;2023-03-26T07:46:35;8.21;90.92
13713;DHT22;6928;50.546;7.120;2023-03-26T07:49:04;8.20;90.88
13713;DHT22;6928;50.546;7.120;2023-03-26T07:51:32;8.34;91.01
13713;DHT22;6928;50.546;7.120;2023-03-26T07:54:01;8.14;91.84
13713;DHT22;6928;50.546;7.120;2023-03-26T07:56:33;8.21;91.76
13713;DHT22;6928;50.546;7.120;2023-03-26T07:59:19;8.06;91.56
13713;DHT22;6928;50.546;7.120;2023-03-26T08:05:17;8.05;91.21
13713;DHT22;6928;50.546;7.120;2023-03-26T08:08:00;8.09;90.76
13713;DHT22;6928;50.546;7.120;2023-03-26T08:10:36;7.99;91.32
13713;DHT22;6928;50.546;7.120;2023-03-26T08:13:19;8.10;91.69
13713;DHT22;6928;50.546;7.120;2023-03-26T08:15:54;7.92;91.11
13713;DHT22;6928;50.546;7.120;2023-03-26T08:18:34;8.19;91.38
13713;DHT22;6928;50.546;7.120;2023-03-26T08:21:08;8.21;91.34
13713;DHT22;6928;50.546;7.120;2023-03-26T08:23:46;8.31;91.34
13713;DHT22;6928;50.546;7.120;2023-03-26T08:26:22;8.21;91.74
13713;DHT22;6928;50.546;7.120;2023-03-26T08:29:00;8.16;91.03
13713;DHT22;6928;50.546;7.120;2023-03-26T08:31:32;8.27;91.05
13713;DHT22;6928;50.546;7.120;2023-03-26T08:34:00;8.17;91.19
13713;DHT22;6928;50.546;7.120;2023-03-26T08:36:27;8.09;91.42
13713;DHT22;6928;50.546;7.120;2023-03-26T08:38:54;7.99;90.74
13713;DHT22;6928;50.546;7.120;2023-03-26T08:52:03;8.34;89.10
13713;DHT22;6928;50.546;7.120;2023-03-26T08:54:50;8.40;89.72
13713;DHT22;6928;50.546;7.120;2023-03-26T08:57:50;8.40;89.72
13713;DHT22;6928;50.546;7.120;2023-03-26T09:00:38;8.44;90.11
13713;DHT22;6928;50.546;7.120;2023-03-26T09:06:52;8.34;89.33
13713;DHT22;6928;50.546;7.120;2023-03-26T09:09:47;8.40;88.25
13713;DHT22;6928;50.546;7.120;2023-03-26T09:12:51;8.16;87.76
13713;DHT22;6928;50.546;7.120;2023-03-26T09:15:58;8.44;87.18
13713;DHT22;6928;50.546;7.120;2023-03-26T09:22:36;8.84;88.16
13713;DHT22;6928;50.546;7.120;2023-03-26T09:25:29;8.78;88.38
13713;DHT22;6928;50.546;7.120;2023-03-26T09:32:08;8.72;88.27
13713;DHT22;6928;50.546;7.120;2023-03-26T09:35:02;8.87;89.38
13713;DHT22;6928;50.546;7.120;2023-03-26T09:37:51;8.91;88.71
13713;DHT22;6928;50.546;7.120;2023-03-26T09:40:27;9.13;88.09
13713;DHT22;6928;50.546;7.120;2023-03-26T09:43:22;9.19;86.99
13713;DHT22;6928;50.546;7.120;2023-03-26T09:46:07;9.02;86.52
13713;DHT22;6928;50.546;7.120;2023-03-26T09:49:02;9.00;87.84
13713;DHT22;6928;50.546;7.120;2023-03-26T09:51:47;8.73;86.70
13713;DHT22;6928;50.546;7.120;2023-03-26T09:54:50;9.02;86.61
13713;DHT22;6928;50.546;7.120;2023-03-26T09:57:31;8.98;86.52
13713;DHT22;6928;50.546;7.120;2023-03-26T10:00:16;9.02;85.76
13713;DHT22;6928;50.546;7.120;2023-03-26T10:03:07;9.26;86.72
13713;DHT22;6928;50.546;7.120;2023-03-26T10:06:07;9.20;87.03
13713;DHT22;6928;50.546;7.120;2023-03-26T10:08:48;9.24;87.41
13713;DHT22;6928;50.546;7.120;2023-03-26T10:11:25;9.24;87.52
13713;DHT22;6928;50.546;7.120;2023-03-26T10:14:05;9.19;87.67
13713;DHT22;6928;50.546;7.120;2023-03-26T10:16:58;9.06;88.01
13713;DHT22;6928;50.546;7.120;2023-03-26T10:19:48;9.26;88.97
13713;DHT22;6928;50.546;7.120;2023-03-26T10:22:35;9.24;87.72
13713;DHT22;6928;50.546;7.120;2023-03-26T10:28:36;9.23;87.78
13713;DHT22;6928;50.546;7.120;2023-03-26T10:31:24;9.31;86.11
13713;DHT22;6928;50.546;7.120;2023-03-26T10:34:00;9.29;85.98
13713;DHT22;6928;50.546;7.120;2023-03-26T10:36:33;9.24;85.16
13713;DHT22;6928;50.546;7.120;2023-03-26T10:39:33;9.24;86.12
13713;DHT22;6928;50.546;7.120;2023-03-26T10:42:19;9.15;85.13
13713;DHT22;6928;50.546;7.120;2023-03-26T10:45:12;9.22;85.97
13713;DHT22;6928;50.546;7.120;2023-03-26T10:48:11;9.27;87.68
13713;DHT22;6928;50.546;7.120;2023-03-26T10:53:48;9.26;88.24
13713;DHT22;6928;50.546;7.120;2023-03-26T10:56:25;9.29;88.66
13713;DHT22;6928;50.546;7.120;2023-03-26T10:58:54;9.26;88.93
13713;DHT22;6928;50.546;7.120;2023-03-26T11:01:36;9.19;89.00
13713;DHT22;6928;50.546;7.120;2023-03-26T11:04:19;9.46;89.38
13713;DHT22;6928;50.546;7.120;2023-03-26T11:06:56;9.24;89.48
13713;DHT22;6928;50.546;7.120;2023-03-26T11:09:34;9.22;89.96
13713;DHT22;6928;50.546;7.120;2023-03-26T11:12:13;9.27;89.85
13713;DHT22;6928;50.546;7.120;2023-03-26T11:14:49;9.15;90.01
13713;DHT22;6928;50.546;7.120;2023-03-26T11:17:28;9.22;90.67
13713;DHT22;6928;50.546;7.120;2023-03-26T11:20:03;9.12;89.64
13713;DHT22;6928;50.546;7.120;2023-03-26T11:22:46;9.10;89.93
13713;DHT22;6928;50.546;7.120;2023-03-26T11:25:33;9.23;90.54
13713;DHT22;6928;50.546;7.120;2023-03-26T11:28:15;9.43;89.65
13713;DHT22;6928;50.546;7.120;2023-03-26T11:30:50;9.41;89.01
13713;DHT22;6928;50.546;7.120;2023-03-26T11:33:23;9.54;88.82
13713;DHT22;6928;50.546;7.120;2023-03-26T11:35:55;9.51;89.23
13713;DHT22;6928;50.546;7.120;2023-03-26T11:38:29;9.48;86.70
13713;DHT22;6928;50.546;7.120;2023-03-26T11:41:11;9.61;86.74
13713;DHT22;6928;50.546;7.120;2023-03-26T11:43:40;10.03;85.45
13713;DHT22;6928;50.546;7.120;2023-03-26T11:46:11;9.74;85.48
13713;DHT22;6928;50.546;7.120;2023-03-26T11:48:41;9.60;85.56
13713;DHT22;6928;50.546;7.120;2023-03-26T11:51:35;9.68;86.11
13713;DHT22;6928;50.546;7.120;2023-03-26T11:54:05;9.75;87.23
13713;DHT22;6928;50.546;7.120;2023-03-26T11:56:41;9.60;87.30
13713;DHT22;6928;50.546;7.120;2023-03-26T11:59:13;9.70;87.19
13713;DHT22;6928;50.546;7.120;2023-03-26T12:01:47;9.62;88.13
13713;DHT22;6928;50.546;7.120;2023-03-26T12:04:18;9.44;87.58
13713;DHT22;6928;50.546;7.120;2023-03-26T12:06:54;9.31;88.64
13713;DHT22;6928;50.546;7.120;2023-03-26T12:09:23;9.31;88.48
13713;DHT22;6928;50.546;7.120;2023-03-26T12:11:54;9.31;89.09
13713;DHT22;6928;50.546;7.120;2023-03-26T12:14:28;9.40;90.18
13713;DHT22;6928;50.546;7.120;2023-03-26T12:16:58;9.27;89.24
13713;DHT22;6928;50.546;7.120;2023-03-26T12:19:26;9.36;88.45
13713;DHT22;6928;50.546;7.120;2023-03-26T12:21:54;9.31;89.84
13713;DHT22;6928;50.546;7.120;2023-03-26T12:24:27;9.20;87.94
13713;DHT22;6928;50.546;7.120;2023-03-26T12:26:59;9.31;87.56
13713;DHT22;6928;50.546;7.120;2023-03-26T12:29:30;9.34;87.25
13713;DHT22;6928;50.546;7.120;2023-03-26T12:32:06;9.30;86.49
13713;DHT22;6928;50.546;7.120;2023-03-26T12:34:38;9.27;86.32
13713;DHT22;6928;50.546;7.120;2023-03-26T12:37:33;9.39;85.38
13713;DHT22;6928;50.546;7.120;2023-03-26T12:40:25;9.46;86.97
13713;DHT22;6928;50.546;7.120;2023-03-26T12:42:55;9.55;85.25
13713;DHT22;6928;50.546;7.120;2023-03-26T12:45:29;9.64;85.19
13713;DHT22;6928;50.546;7.120;2023-03-26T12:47:58;9.61;85.80
13713;DHT22;6928;50.546;7.120;2023-03-26T12:50:33;9.60;84.80
13713;DHT22;6928;50.546;7.120;2023-03-26T12:53:17;9.51;84.84
13713;DHT22;6928;50.546;7.120;2023-03-26T12:55:56;9.65;85.76
13713;DHT22;6928;50.546;7.120;2023-03-26T12:59:10;9.41;84.79
13713;DHT22;6928;50.546;7.120;2023-03-26T13:01:54;9.51;86.60
13713;DHT22;6928;50.546;7.120;2023-03-26T13:04:51;9.41;87.54
13713;DHT22;6928;50.546;7.120;2023-03-26T13:07:29;9.34;86.99
13713;DHT22;6928;50.546;7.120;2023-03-26T13:10:32;9.47;88.16
13713;DHT22;6928;50.546;7.120;2023-03-26T13:13:23;9.31;87.28
13713;DHT22;6928;50.546;7.120;2023-03-26T13:16:06;9.33;88.18
13713;DHT22;6928;50.546;7.120;2023-03-26T13:18:45;9.18;87.24
13713;DHT22;6928;50.546;7.120;2023-03-26T13:21:22;9.15;87.03
13713;DHT22;6928;50.546;7.120;2023-03-26T13:24:01;9.27;87.30
13713;DHT22;6928;50.546;7.120;2023-03-26T13:26:53;9.26;86.41
13713;DHT22;6928;50.546;7.120;2023-03-26T13:29:28;9.23;86.30
13713;DHT22;6928;50.546;7.120;2023-03-26T13:32:04;9.27;86.06
13713;DHT22;6928;50.546;7.120;2023-03-26T13:34:46;9.26;86.12
13713;DHT22;6928;50.546;7.120;2023-03-26T13:37:22;9.37;86.73
13713;DHT22;6928;50.546;7.120;2023-03-26T13:40:00;9.36;86.36
13713;DHT22;6928;50.546;7.120;2023-03-26T13:42:44;9.39;86.25
13713;DHT22;6928;50.546;7.120;2023-03-26T13:45:32;9.46;86.70
13713;DHT22;6928;50.546;7.120;2023-03-26T13:48:05;9.46;87.22
13713;DHT22;6928;50.546;7.120;2023-03-26T13:50:40;9.51;87.16
13713;DHT22;6928;50.546;7.120;2023-03-26T13:53:15;9.60;87.11
13713;DHT22;6928;50.546;7.120;2023-03-26T13:55:46;9.60;86.33
13713;DHT22;6928;50.546;7.120;2023-03-26T13:58:19;9.74;87.01
13713;DHT22;6928;50.546;7.120;2023-03-26T14:00:53;9.64;86.17
13713;DHT22;6928;50.546;7.120;2023-03-26T14:03:32;9.84;88.25
13713;DHT22;6928;50.546;7.120;2023-03-26T14:06:09;9.81;87.18
13713;DHT22;6928;50.546;7.120;2023-03-26T14:08:40;9.79;85.91
13713;DHT22;6928;50.546;7.120;2023-03-26T14:11:13;9.85;85.85
13713;DHT22;6928;50.546;7.120;2023-03-26T14:13:47;9.92;86.13
13713;DHT22;6928;50.546;7.120;2023-03-26T14:16:17;10.02;85.75
13713;DHT22;6928;50.546;7.120;2023-03-26T14:18:51;10.02;85.70
13713;DHT22;6928;50.546;7.120;2023-03-26T14:21:53;9.94;84.36
13713;DHT22;6928;50.546;7.120;2023-03-26T14:24:57;9.98;86.00
13713;DHT22;6928;50.546;7.120;2023-03-26T14:27:55;9.87;86.53
13713;DHT22;6928;50.546;7.120;2023-03-26T14:30:53;9.91;86.96
13713;DHT22;6928;50.546;7.120;2023-03-26T14:33:52;9.81;86.83
13713;DHT22;6928;50.546;7.120;2023-03-26T14:39:56;9.62;87.51
13713;DHT22;6928;50.546;7.120;2023-03-26T14:42:40;9.41;87.50
13713;DHT22;6928;50.546;7.120;2023-03-26T14:45:45;9.39;87.60
13713;DHT22;6928;50.546;7.120;2023-03-26T14:48:53;9.29;87.97
13713;DHT22;6928;50.546;7.120;2023-03-26T14:51:41;9.26;88.07
13713;DHT22;6928;50.546;7.120;2023-03-26T14:54:17;9.23;89.01
13713;DHT22;6928;50.546;7.120;2023-03-26T15:04:11;9.22;89.51
13713;DHT22;6928;50.546;7.120;2023-03-26T15:07:27;9.10;89.92
13713;DHT22;6928;50.546;7.120;2023-03-26T15:10:21;9.09;89.67
13713;DHT22;6928;50.546;7.120;2023-03-26T15:13:27;9.09;89.61
13713;DHT22;6928;50.546;7.120;2023-03-26T15:16:15;9.09;89.94
13713;DHT22;6928;50.546;7.120;2023-03-26T15:19:14;8.79;88.56
13713;DHT22;6928;50.546;7.120;2023-03-26T15:28:15;8.75;89.29
13713;DHT22;6928;50.546;7.120;2023-03-26T15:34:56;8.69;89.45
13713;DHT22;6928;50.546;7.120;2023-03-26T15:40:42;8.57;89.03
13713;DHT22;6928;50.546;7.120;2023-03-26T15:43:13;8.55;88.05
13713;DHT22;6928;50.546;7.120;2023-03-26T15:45:43;8.52;88.12
13713;DHT22;6928;50.546;7.120;2023-03-26T15:48:41;8.50;88.44
13713;DHT22;6928;50.546;7.120;2023-03-26T15:51:27;8.55;88.86
13713;DHT22;6928;50.546;7.120;2023-03-26T15:54:02;8.64;89.37
13713;DHT22;6928;50.546;7.120;2023-03-26T15:56:54;8.65;89.88
13713;DHT22;6928;50.546;7.120;2023-03-26T16:01:58;8.58;89.62
13713;DHT22;6928;50.546;7.120;2023-03-26T16:04:47;8.60;90.06
13713;DHT22;6928;50.546;7.120;2023-03-26T16:07:38;8.65;90.76
13713;DHT22;6928;50.546;7.120;2023-03-26T16:10:22;8.60;90.63
13713;DHT22;6928;50.546;7.120;2023-03-26T16:13:19;8.61;90.54
13713;DHT22;6928;50.546;7.120;2023-03-26T16:15:52;8.65;90.55
13713;DHT22;6928;50.546;7.120;2023-03-26T16:18:32;8.65;90.54
13713;DHT22;6928;50.546;7.120;2023-03-26T16:21:38;8.62;90.84
13713;DHT22;6928;50.546;7.120;2023-03-26T16:30:25;8.75;91.66
13713;DHT22;6928;50.546;7.120;2023-03-26T16:32:55;8.72;91.03
13713;DHT22;6928;50.546;7.120;2023-03-26T16:35:59;8.65;91.13
13713;DHT22;6928;50.546;7.120;2023-03-26T16:38:46;8.62;91.55
13713;DHT22;6928;50.546;7.120;2023-03-26T16:41:17;8.60;91.34
13713;DHT22;6928;50.546;7.120;2023-03-26T16:44:08;8.58;91.63
13713;DHT22;6928;50.546;7.120;2023-03-26T16:46:46;8.75;91.54
13713;DHT22;6928;50.546;7.120;2023-03-26T16:49:31;8.67;91.86
13713;DHT22;6928;50.546;7.120;2023-03-26T16:52:22;8.67;91.69
13713;DHT22;6928;50.546;7.120;2023-03-26T16:54:59;8.61;91.68
13713;DHT22;6928;50.546;7.120;2023-03-26T16:57:39;8.58;90.88
13713;DHT22;6928;50.546;7.120;2023-03-26T17:00:47;8.61;90.71
13713;DHT22;6928;50.546;7.120;2023-03-26T17:03:29;8.62;90.22
13713;DHT22;6928;50.546;7.120;2023-03-26T17:06:12;8.64;89.99
13713;DHT22;6928;50.546;7.120;2023-03-26T17:09:00;8.69;90.22
13713;DHT22;6928;50.546;7.120;2023-03-26T17:11:40;8.65;89.85
13713;DHT22;6928;50.546;7.120;2023-03-26T17:14:25;8.68;89.83
13713;DHT22;6928;50.546;7.120;2023-03-26T17:17:20;8.58;88.84
13713;DHT22;6928;50.546;7.120;2023-03-26T17:19:56;8.47;88.43
13713;DHT22;6928;50.546;7.120;2023-03-26T17:22:36;8.44;87.83
13713;DHT22;6928;50.546;7.120;2023-03-26T17:25:24;8.44;88.22
13713;DHT22;6928;50.546;7.120;2023-03-26T17:28:10;8.54;88.49
13713;DHT22;6928;50.546;7.120;2023-03-26T17:30:53;8.37;88.13
13713;DHT22;6928;50.546;7.120;2023-03-26T17:33:27;8.40;88.80
13713;DHT22;6928;50.546;7.120;2023-03-26T17:36:29;8.34;89.03
13713;DHT22;6928;50.546;7.120;2023-03-26T17:39:18;8.30;88.88
13713;DHT22;6928;50.546;7.120;2023-03-26T17:44:43;8.21;88.96
13713;DHT22;6928;50.546;7.120;2023-03-26T17:47:30;8.26;89.43
13713;DHT22;6928;50.546;7.120;2023-03-26T17:50:04;8.30;89.83
13713;DHT22;6928;50.546;7.120;2023-03-26T17:52:43;8.26;90.27
13713;DHT22;6928;50.546;7.120;2023-03-26T17:55:17;8.16;90.28
13713;DHT22;6928;50.546;7.120;2023-03-26T17:57:49;8.19;90.22
13713;DHT22;6928;50.546;7.120;2023-03-26T18:00:21;8.13;90.06
13713;DHT22;6928;50.546;7.120;2023-03-26T18:02:54;8.13;91.07
13713;DHT22;6928;50.546;7.120;2023-03-26T18:05:27;8.14;91.02